createdAt,value
2019-03-15T00:01:14.399Z,3.90
2019-03-15T00:03:42.541Z,4.35
2019-03-15T00:06:10.752Z,3.75
2019-03-15T00:08:38.875Z,4.05
2019-03-15T00:11:09.416Z,3.85
2019-03-15T00:13:38.554Z,4.37
2019-03-15T00:16:06.860Z,4.05
2019-03-15T00:18:34.950Z,3.92
2019-03-15T00:21:03.137Z,4.53
2019-03-15T00:23:31.231Z,4.40
2019-03-15T00:25:59.524Z,4.00
2019-03-15T00:28:27.554Z,3.90
2019-03-15T00:30:55.618Z,4.05
2019-03-15T00:33:24.491Z,4.15
2019-03-15T00:35:52.844Z,4.08
2019-03-15T00:38:20.907Z,4.00
2019-03-15T00:40:48.979Z,4.17
2019-03-15T00:43:17.094Z,4.03
2019-03-15T00:45:45.223Z,4.05
2019-03-15T00:48:13.282Z,4.40
2019-03-15T00:50:41.372Z,4.20
2019-03-15T00:53:09.509Z,4.00
2019-03-15T00:55:37.597Z,4.10
2019-03-15T00:58:05.767Z,4.65
2019-03-15T01:00:33.860Z,4.30
2019-03-15T01:03:02.560Z,3.70
2019-03-15T01:05:30.732Z,4.03
2019-03-15T01:07:58.733Z,4.25
2019-03-15T01:10:26.745Z,4.08
2019-03-15T01:12:54.735Z,4.10
2019-03-15T01:15:22.766Z,4.63
2019-03-15T01:17:50.775Z,3.80
2019-03-15T01:20:20.472Z,4.17
2019-03-15T01:22:48.542Z,4.10
2019-03-15T01:25:16.574Z,4.57
2019-03-15T01:27:44.696Z,3.80
2019-03-15T01:30:12.819Z,4.30
2019-03-15T01:32:40.804Z,4.42
2019-03-15T01:35:08.962Z,4.80
2019-03-15T01:37:37.011Z,4.70
2019-03-15T01:40:05.362Z,4.28
2019-03-15T01:42:33.329Z,4.70
2019-03-15T01:45:01.407Z,5.20
2019-03-15T01:47:29.462Z,5.15
2019-03-15T01:49:58.976Z,5.87
2019-03-15T01:52:27.109Z,5.67
2019-03-15T01:54:55.187Z,5.72
2019-03-15T01:57:23.198Z,5.62
2019-03-15T01:59:51.226Z,5.15
2019-03-15T02:02:19.251Z,5.97
2019-03-15T02:04:47.302Z,5.90
2019-03-15T02:07:15.321Z,5.67
2019-03-15T02:09:44.525Z,5.33
2019-03-15T02:12:12.667Z,5.87
2019-03-15T02:14:40.742Z,5.80
2019-03-15T02:17:08.764Z,5.03
2019-03-15T02:19:36.878Z,5.45
2019-03-15T02:22:06.763Z,5.30
2019-03-15T02:24:34.882Z,5.12
2019-03-15T02:27:02.879Z,5.37
2019-03-15T02:29:30.936Z,4.90
2019-03-15T02:31:58.944Z,5.10
2019-03-15T02:34:27.549Z,4.67
2019-03-15T02:36:55.794Z,4.40
2019-03-15T02:39:23.855Z,4.45
2019-03-15T02:41:51.917Z,4.28
2019-03-15T02:44:20.095Z,4.53
2019-03-15T02:46:48.145Z,4.25
2019-03-15T02:49:16.181Z,4.60
2019-03-15T02:51:44.514Z,3.98
2019-03-15T02:54:12.568Z,4.60
2019-03-15T02:56:40.821Z,3.62
2019-03-15T02:59:10.358Z,3.90
2019-03-15T03:01:38.499Z,4.50
2019-03-15T03:04:06.610Z,4.47
2019-03-15T03:06:34.729Z,3.77
2019-03-15T03:09:02.742Z,4.10
2019-03-15T03:11:30.816Z,4.50
2019-03-15T03:13:58.885Z,4.05
2019-03-15T03:16:27.052Z,3.80
2019-03-15T03:18:55.123Z,3.70
2019-03-15T03:21:23.412Z,3.77
2019-03-15T03:23:51.523Z,3.85
2019-03-15T03:26:19.567Z,3.87
2019-03-15T03:28:47.622Z,3.65
2019-03-15T03:31:16.335Z,3.62
2019-03-15T03:33:44.516Z,3.90
2019-03-15T03:36:12.649Z,3.70
2019-03-15T03:38:40.794Z,3.95
2019-03-15T03:41:08.819Z,4.35
2019-03-15T03:43:36.870Z,4.20
2019-03-15T03:46:04.887Z,4.50
2019-03-15T03:48:33.100Z,4.33
2019-03-15T03:51:01.300Z,4.10
2019-03-15T03:53:32.373Z,4.00
2019-03-15T03:56:00.491Z,4.40
2019-03-15T03:58:28.634Z,3.72
2019-03-15T04:00:56.705Z,4.00
2019-03-15T04:03:24.754Z,4.25
2019-03-15T04:05:52.808Z,4.10
2019-03-15T04:08:20.807Z,5.97
2019-03-15T04:10:48.759Z,4.33
2019-03-15T04:13:16.819Z,3.72
2019-03-15T04:15:44.939Z,4.30
2019-03-15T04:18:12.945Z,4.40
2019-03-15T04:20:40.957Z,4.22
2019-03-15T04:23:08.978Z,4.03
2019-03-15T04:25:36.991Z,4.53
2019-03-15T04:28:05.027Z,4.25
2019-03-15T04:30:33.261Z,4.53
2019-03-15T04:33:01.264Z,4.30
2019-03-15T04:35:30.430Z,4.35
2019-03-15T04:37:58.594Z,4.70
2019-03-15T04:40:26.682Z,4.33
2019-03-15T04:42:54.740Z,4.40
2019-03-15T04:45:22.859Z,4.03
2019-03-15T04:47:50.866Z,3.70
2019-03-15T04:50:18.929Z,3.42
2019-03-15T04:52:46.963Z,4.55
2019-03-15T04:55:14.991Z,3.90
2019-03-15T04:57:43.135Z,3.77
2019-03-15T05:00:12.038Z,4.27
2019-03-15T05:03:28.469Z,4.30
2019-03-15T05:06:24.678Z,3.87
2019-03-15T05:08:57.217Z,4.15
2019-03-15T05:11:25.380Z,3.95
2019-03-15T05:13:53.425Z,4.03
2019-03-15T05:16:55.714Z,4.20
2019-03-15T05:19:23.887Z,4.20
2019-03-15T05:21:57.266Z,5.37
2019-03-15T05:24:25.320Z,4.10
2019-03-15T05:26:53.391Z,4.22
2019-03-15T05:29:21.520Z,4.55
2019-03-15T05:31:50.574Z,3.75
2019-03-15T05:34:18.616Z,4.10
2019-03-15T05:36:48.626Z,4.25
2019-03-15T05:39:16.731Z,4.17
2019-03-15T05:44:22.839Z,4.10
2019-03-15T05:46:50.959Z,4.15
2019-03-15T05:49:21.975Z,4.62
2019-03-15T05:51:49.950Z,4.35
2019-03-15T05:54:17.903Z,4.92
2019-03-15T05:56:45.920Z,4.53
2019-03-15T05:59:13.982Z,4.00
2019-03-15T06:01:43.224Z,4.22
2019-03-15T06:04:11.301Z,4.80
2019-03-15T06:06:39.356Z,4.30
2019-03-15T06:09:07.338Z,4.35
2019-03-15T06:11:35.314Z,4.67
2019-03-15T06:14:03.339Z,4.85
2019-03-15T06:16:31.314Z,4.62
2019-03-15T06:18:59.364Z,4.53
2019-03-15T06:21:27.382Z,5.22
2019-03-15T06:23:55.453Z,4.55
2019-03-15T06:26:23.451Z,4.87
2019-03-15T06:28:51.427Z,5.22
2019-03-15T06:31:19.420Z,4.75
2019-03-15T06:33:47.497Z,5.35
2019-03-15T06:36:15.506Z,4.78
2019-03-15T06:38:43.502Z,4.90
2019-03-15T06:41:14.342Z,4.58
2019-03-15T06:43:41.226Z,4.67
2019-03-15T06:46:09.233Z,4.75
2019-03-15T06:48:37.231Z,4.90
2019-03-15T06:51:05.229Z,4.85
2019-03-15T06:53:33.274Z,4.95
2019-03-15T06:56:01.257Z,5.45
2019-03-15T06:58:29.221Z,5.22
2019-03-15T07:00:57.564Z,5.37
2019-03-15T07:03:25.610Z,6.22
2019-03-15T07:05:53.625Z,6.12
2019-03-15T07:08:21.590Z,5.35
2019-03-15T07:10:49.635Z,5.70
2019-03-15T07:13:17.602Z,5.53
2019-03-15T07:15:45.599Z,5.42
2019-03-15T07:18:13.613Z,5.30
2019-03-15T07:20:41.639Z,5.42
2019-03-15T07:23:09.610Z,5.97
2019-03-15T07:25:37.599Z,6.33
2019-03-15T07:28:05.604Z,6.00
2019-03-15T07:30:33.622Z,6.20
2019-03-15T07:33:01.651Z,7.40
2019-03-15T07:35:29.650Z,7.50
2019-03-15T07:37:57.613Z,8.18
2019-03-15T07:40:25.631Z,7.58
2019-03-15T07:42:53.608Z,8.13
2019-03-15T07:45:21.607Z,7.07
2019-03-15T07:47:49.587Z,8.98
2019-03-15T07:50:17.584Z,7.80
2019-03-15T07:52:45.578Z,7.62
2019-03-15T07:55:13.563Z,8.73
2019-03-15T07:57:41.592Z,11.20
2019-03-15T08:00:09.687Z,14.28
2019-03-15T08:02:37.698Z,16.30
2019-03-15T08:05:06.307Z,15.94
2019-03-15T08:07:37.788Z,17.10
2019-03-15T08:10:04.022Z,19.80
2019-03-15T08:12:32.048Z,16.52
2019-03-15T08:15:00.013Z,15.53
2019-03-15T08:17:28.005Z,17.00
2019-03-15T08:19:55.974Z,24.00
2019-03-15T08:22:24.048Z,17.82
2019-03-15T08:24:52.187Z,14.13
2019-03-15T08:27:20.167Z,11.05
2019-03-15T08:29:48.166Z,11.95
2019-03-15T08:32:16.252Z,11.53
2019-03-15T08:34:45.437Z,9.73
2019-03-15T08:37:13.421Z,9.75
2019-03-15T08:39:41.409Z,10.28
2019-03-15T08:42:09.495Z,8.78
2019-03-15T08:44:37.494Z,9.10
2019-03-15T08:47:05.517Z,6.33
2019-03-15T08:49:34.373Z,9.45
2019-03-15T08:52:21.368Z,7.85
2019-03-15T08:55:05.526Z,7.22
2019-03-15T08:57:33.587Z,7.42
2019-03-15T09:00:11.244Z,7.95
2019-03-15T09:02:39.407Z,8.10
2019-03-15T09:05:07.829Z,8.20
2019-03-15T09:07:35.858Z,8.48
2019-03-15T09:10:04.079Z,8.38
2019-03-15T09:12:32.145Z,7.70
2019-03-15T09:15:00.407Z,8.93
2019-03-15T09:17:28.417Z,8.83
2019-03-15T09:19:56.489Z,9.33
2019-03-15T09:22:24.479Z,9.25
2019-03-15T09:24:52.574Z,9.10
2019-03-15T09:27:20.577Z,9.18
2019-03-15T09:29:48.680Z,10.08
2019-03-15T09:32:16.720Z,9.55
2019-03-15T09:34:44.756Z,9.53
2019-03-15T09:37:12.756Z,9.65
2019-03-15T09:39:40.753Z,9.40
2019-03-15T09:42:08.766Z,9.35
2019-03-15T09:44:37.624Z,9.75
2019-03-15T09:47:05.967Z,9.95
2019-03-15T09:49:33.948Z,9.78
2019-03-15T09:52:01.972Z,10.32
2019-03-15T09:54:30.007Z,10.43
2019-03-15T09:56:58.029Z,10.30
2019-03-15T09:59:26.013Z,10.10
2019-03-15T10:01:54.033Z,9.20
2019-03-15T10:04:31.283Z,9.78
2019-03-15T10:06:59.323Z,9.65
2019-03-15T10:09:27.298Z,8.93
2019-03-15T10:11:56.602Z,9.23
2019-03-15T10:14:24.790Z,8.75
2019-03-15T10:16:52.807Z,8.68
2019-03-15T10:19:20.771Z,8.05
2019-03-15T10:21:48.915Z,8.53
2019-03-15T10:24:16.918Z,8.55
2019-03-15T10:26:44.925Z,8.63
2019-03-15T10:29:15.619Z,8.50
2019-03-15T10:31:42.638Z,8.03
2019-03-15T10:34:10.672Z,8.40
2019-03-15T10:36:38.744Z,8.15
2019-03-15T10:39:06.846Z,8.00
2019-03-15T10:41:38.089Z,7.37
2019-03-15T10:44:04.809Z,7.45
2019-03-15T10:46:32.786Z,7.17
2019-03-15T10:49:00.794Z,6.47
2019-03-15T10:51:28.822Z,7.40
2019-03-15T10:53:56.852Z,6.17
2019-03-15T10:56:24.839Z,6.90
2019-03-15T10:58:52.926Z,6.55
2019-03-15T11:01:20.904Z,6.08
2019-03-15T11:03:49.029Z,6.05
2019-03-15T11:06:17.065Z,6.08
2019-03-15T11:08:46.569Z,5.97
2019-03-15T11:11:14.557Z,5.83
2019-03-15T11:13:42.665Z,5.47
2019-03-15T11:16:10.642Z,5.08
2019-03-15T11:18:38.654Z,5.42
2019-03-15T11:21:06.739Z,4.80
2019-03-15T11:23:34.774Z,4.47
2019-03-15T11:26:12.941Z,5.15
2019-03-15T11:28:32.595Z,4.62
2019-03-15T11:31:00.914Z,4.55
2019-03-15T11:33:29.117Z,4.35
2019-03-15T11:35:57.152Z,4.12
2019-03-15T11:38:25.184Z,4.37
2019-03-15T11:40:53.208Z,4.62
2019-03-15T11:43:21.189Z,5.10
2019-03-15T11:45:49.233Z,4.70
2019-03-15T11:48:20.231Z,4.35
2019-03-15T11:50:48.338Z,5.50
2019-03-15T11:53:18.913Z,5.00
2019-03-15T11:55:46.211Z,6.03
2019-03-15T11:58:14.276Z,7.75
2019-03-15T12:00:42.303Z,7.92
2019-03-15T12:03:10.425Z,8.53
2019-03-15T12:05:38.538Z,9.70
2019-03-15T12:08:06.550Z,9.93
2019-03-15T12:10:34.566Z,10.68
2019-03-15T12:13:02.575Z,10.48
2019-03-15T12:15:30.595Z,11.30
2019-03-15T12:17:58.611Z,12.18
2019-03-15T12:20:26.636Z,11.70
2019-03-15T12:22:54.671Z,11.70
2019-03-15T12:25:22.720Z,11.93
2019-03-15T12:27:50.833Z,11.43
2019-03-15T12:30:18.877Z,12.30
2019-03-15T12:32:46.914Z,12.55
2019-03-15T12:35:14.954Z,12.53
2019-03-15T12:37:43.191Z,12.88
2019-03-15T12:40:11.257Z,12.60
2019-03-15T12:42:39.349Z,12.50
2019-03-15T12:45:07.796Z,12.45
2019-03-15T12:47:35.917Z,12.13
2019-03-15T12:50:04.173Z,12.00
2019-03-15T12:52:45.874Z,11.80
2019-03-15T12:55:01.973Z,11.65
2019-03-15T12:57:30.018Z,11.35
2019-03-15T12:59:58.014Z,11.10
2019-03-15T13:02:26.060Z,10.30
2019-03-15T13:04:54.058Z,10.25
2019-03-15T13:07:22.106Z,9.75
2019-03-15T13:09:50.240Z,9.35
2019-03-15T13:12:18.304Z,8.80
2019-03-15T13:14:46.343Z,8.45
2019-03-15T13:17:14.416Z,7.92
2019-03-15T13:19:54.620Z,8.40
2019-03-15T13:22:12.209Z,8.48
2019-03-15T13:24:40.317Z,7.87
2019-03-15T13:27:08.319Z,8.00
2019-03-15T13:29:36.501Z,7.80
2019-03-15T13:32:04.615Z,8.23
2019-03-15T13:34:32.652Z,7.87
2019-03-15T13:37:00.746Z,8.38
2019-03-15T13:39:28.771Z,8.03
2019-03-15T13:41:56.819Z,9.50
2019-03-15T13:44:26.260Z,9.53
2019-03-15T13:46:54.519Z,7.80
2019-03-15T13:49:22.629Z,7.65
2019-03-15T13:51:50.617Z,9.23
2019-03-15T13:54:18.655Z,12.00
2019-03-15T13:56:48.525Z,9.63
2019-03-15T13:59:16.538Z,11.12
2019-03-15T14:01:44.603Z,8.68
2019-03-15T14:04:12.647Z,8.18
2019-03-15T14:06:40.729Z,7.33
2019-03-15T14:09:08.924Z,7.87
2019-03-15T14:11:37.077Z,7.67
2019-03-15T14:14:05.097Z,7.45
2019-03-15T14:16:33.155Z,6.78
2019-03-15T14:19:01.243Z,7.03
2019-03-15T14:21:29.329Z,6.90
2019-03-15T14:23:57.366Z,7.00
2019-03-15T14:26:25.387Z,7.00
2019-03-15T14:28:53.374Z,6.47
2019-03-15T14:31:21.802Z,7.00
2019-03-15T14:33:49.907Z,6.95
2019-03-15T14:36:17.930Z,6.37
2019-03-15T14:38:46.170Z,8.18
2019-03-15T14:41:14.371Z,7.15
2019-03-15T14:43:42.409Z,7.85
2019-03-15T14:46:12.150Z,6.00
2019-03-15T14:48:40.250Z,6.10
2019-03-15T14:51:08.406Z,7.65
2019-03-15T14:53:36.440Z,7.08
2019-03-15T14:56:04.491Z,7.08
2019-03-15T14:58:32.617Z,8.88
2019-03-15T15:01:00.670Z,6.22
2019-03-15T15:03:28.746Z,5.15
2019-03-15T15:05:56.773Z,5.58
2019-03-15T15:08:24.921Z,5.60
2019-03-15T15:10:53.027Z,4.78
2019-03-15T15:13:21.120Z,5.15
2019-03-15T15:15:49.191Z,4.97
2019-03-15T15:18:17.371Z,4.60
2019-03-15T15:20:45.350Z,4.30
2019-03-15T15:23:13.471Z,4.12
2019-03-15T15:25:41.891Z,4.83
2019-03-15T15:28:09.975Z,4.37
2019-03-15T15:30:39.139Z,4.10
2019-03-15T15:33:07.244Z,4.35
2019-03-15T15:35:35.237Z,4.30
2019-03-15T15:38:03.289Z,4.47
2019-03-15T15:40:31.289Z,4.47
2019-03-15T15:42:59.362Z,4.78
2019-03-15T15:45:29.869Z,5.37
2019-03-15T15:47:57.141Z,5.37
2019-03-15T15:50:25.122Z,6.20
2019-03-15T15:52:53.151Z,6.37
2019-03-15T15:55:21.312Z,6.53
2019-03-15T15:57:49.351Z,7.03
2019-03-15T16:00:17.502Z,6.43
2019-03-15T16:02:45.635Z,5.85
2019-03-15T16:05:14.117Z,6.73
2019-03-15T16:07:42.109Z,13.30
2019-03-15T16:10:10.613Z,11.63
2019-03-15T16:12:39.544Z,9.35
2019-03-15T16:15:07.904Z,7.67
2019-03-15T16:17:35.949Z,7.30
2019-03-15T16:20:04.130Z,7.78
2019-03-15T16:22:32.228Z,9.48
2019-03-15T16:25:00.391Z,7.03
2019-03-15T16:27:28.497Z,7.10
2019-03-15T16:29:56.544Z,10.00
2019-03-15T16:32:24.553Z,7.87
2019-03-15T16:34:52.562Z,6.55
2019-03-15T16:37:20.617Z,6.17
2019-03-15T16:39:48.727Z,5.67
2019-03-15T16:42:16.739Z,5.33
2019-03-15T16:44:44.743Z,4.00
2019-03-15T16:47:12.757Z,3.60
2019-03-15T16:49:40.773Z,3.37
2019-03-15T16:52:08.792Z,3.52
2019-03-15T16:54:36.812Z,3.40
2019-03-15T16:57:04.830Z,4.60
2019-03-15T16:59:32.834Z,5.58
2019-03-15T17:02:00.986Z,6.28
2019-03-15T17:04:29.002Z,5.83
2019-03-15T17:06:57.037Z,7.03
2019-03-15T17:09:25.084Z,5.67
2019-03-15T17:11:53.129Z,5.40
2019-03-15T17:14:25.806Z,4.30
2019-03-15T17:16:50.918Z,4.42
2019-03-15T17:19:18.959Z,3.27
2019-03-15T17:21:47.063Z,3.70
2019-03-15T17:24:15.127Z,2.50
2019-03-15T17:26:43.272Z,2.30
2019-03-15T17:29:11.381Z,2.02
2019-03-15T17:31:39.452Z,2.15
2019-03-15T17:34:07.493Z,2.83
2019-03-15T17:36:35.602Z,3.30
2019-03-15T17:39:04.536Z,2.60
2019-03-15T17:41:32.533Z,2.45
2019-03-15T17:44:00.590Z,2.83
2019-03-15T17:46:28.685Z,3.55
2019-03-15T17:48:56.724Z,2.83
2019-03-15T17:51:24.775Z,3.33
2019-03-15T17:53:52.829Z,3.30
2019-03-15T17:56:20.931Z,3.08
2019-03-15T17:58:48.968Z,3.50
2019-03-15T18:01:16.999Z,3.62
2019-03-15T18:03:47.359Z,3.60
2019-03-15T18:06:14.737Z,3.10
2019-03-15T18:08:42.793Z,5.00
2019-03-15T18:11:10.814Z,4.03
2019-03-15T18:13:38.814Z,4.20
2019-03-15T18:16:06.817Z,5.37
2019-03-15T18:18:34.954Z,3.98
2019-03-15T18:21:02.961Z,4.30
2019-03-15T18:23:30.971Z,4.85
2019-03-15T18:25:59.067Z,4.20
2019-03-15T18:28:27.124Z,4.28
2019-03-15T18:30:55.150Z,3.90
2019-03-15T18:33:23.164Z,4.00
2019-03-15T18:35:51.161Z,3.35
2019-03-15T18:38:19.172Z,3.95
2019-03-15T18:40:47.205Z,3.98
2019-03-15T18:43:15.208Z,3.50
2019-03-15T18:45:43.298Z,4.03
2019-03-15T18:48:11.311Z,3.77
2019-03-15T18:50:39.380Z,3.70
2019-03-15T18:53:07.448Z,3.42
2019-03-15T18:55:35.685Z,3.90
2019-03-15T18:58:03.657Z,3.70
2019-03-15T19:00:31.733Z,3.95
2019-03-15T19:03:00.267Z,4.28
2019-03-15T19:05:29.009Z,4.08
2019-03-15T19:07:57.100Z,3.75
2019-03-15T19:10:25.137Z,3.55
2019-03-15T19:12:53.124Z,3.92
2019-03-15T19:15:21.214Z,3.70
2019-03-15T19:17:49.237Z,4.42
2019-03-15T19:20:17.383Z,4.33
2019-03-15T19:22:45.492Z,4.20
2019-03-15T19:25:13.588Z,4.37
2019-03-15T19:27:41.576Z,4.28
2019-03-15T19:30:10.203Z,4.67
2019-03-15T19:32:38.274Z,5.15
2019-03-15T19:35:06.564Z,4.42
2019-03-15T19:37:34.612Z,3.75
2019-03-15T19:40:02.682Z,4.22
2019-03-15T19:42:30.797Z,4.08
2019-03-15T19:44:58.789Z,4.22
2019-03-15T19:47:33.272Z,3.92
2019-03-15T19:50:01.424Z,4.20
2019-03-15T19:52:29.508Z,4.30
2019-03-15T19:55:00.661Z,4.90
2019-03-15T19:57:27.447Z,5.20
2019-03-15T20:00:31.518Z,5.22
2019-03-15T20:02:59.689Z,5.30
2019-03-15T20:05:27.842Z,5.53
2019-03-15T20:07:55.886Z,5.10
2019-03-15T20:10:23.930Z,4.70
2019-03-15T20:12:52.052Z,4.97
2019-03-15T20:15:20.214Z,4.50
2019-03-15T20:17:48.292Z,4.87
2019-03-15T20:20:16.427Z,4.90
2019-03-15T20:22:44.491Z,4.80
2019-03-15T20:25:12.596Z,4.67
2019-03-15T20:27:42.994Z,3.87
2019-03-15T20:30:21.176Z,4.12
2019-03-15T20:32:42.342Z,3.65
2019-03-15T20:35:10.382Z,4.30
2019-03-15T20:37:38.418Z,3.65
2019-03-15T20:40:06.463Z,3.80
2019-03-15T20:46:36.137Z,3.75
2019-03-15T20:49:32.329Z,3.45
2019-03-15T20:52:30.252Z,3.47
2019-03-15T20:55:31.543Z,3.60
2019-03-15T20:58:32.820Z,3.67
2019-03-15T21:01:31.020Z,3.25
2019-03-15T21:13:33.830Z,3.45
2019-03-15T21:43:30.036Z,3.35
2019-03-15T21:46:31.097Z,3.98
2019-03-15T21:56:30.696Z,3.25
2019-03-15T21:59:32.007Z,3.47
2019-03-15T22:02:30.189Z,3.52
2019-03-15T22:05:31.282Z,3.17
2019-03-15T22:08:32.294Z,4.00
2019-03-15T22:11:30.309Z,4.00
2019-03-15T22:14:31.099Z,3.47
2019-03-15T22:17:32.071Z,3.58
2019-03-15T22:20:33.012Z,4.08
2019-03-15T22:23:30.959Z,3.80
2019-03-15T22:32:31.749Z,3.90
2019-03-15T22:58:33.154Z,5.15
2019-03-15T23:04:32.134Z,4.70
2019-03-15T23:07:31.113Z,5.22
2019-03-15T23:13:30.361Z,5.62
2019-03-15T23:25:17.342Z,5.90
2019-03-15T23:27:45.480Z,5.80
2019-03-15T23:30:14.774Z,6.27
2019-03-15T23:32:42.940Z,5.10
2019-03-15T23:35:13.105Z,5.50
2019-03-15T23:37:43.914Z,4.53
2019-03-15T23:40:14.342Z,5.03
2019-03-15T23:42:42.448Z,4.50
2019-03-15T23:45:10.627Z,4.70
2019-03-15T23:47:38.906Z,4.92
2019-03-15T23:50:07.010Z,5.35
2019-03-15T23:52:35.054Z,5.12
2019-03-15T23:55:03.278Z,5.75
2019-03-15T23:57:31.382Z,5.15
